AUA75B EDDN-EDDF
Flight info
| Callsign | AUA75B |
|---|---|
| Flight time | 0h 27m |
| Altitude | 18000 |
| Route | SUKAD1G SUKAD DCT PIWAW T159 SPESA SPESA4B |
| Aircraft | A320/M-SDE3FGHIRWY/LB1 |
Departure
| Time | 2026-05-04 19:28 |
|---|---|
| Airport | Nuremberg Airport (EDDN) |
Arrival
| Time | 2026-05-04 19:55 |
|---|---|
| Airport | Frankfurt Main Airport (EDDF) |
| Time | Latitude | Longitude | Altitude | Speed | Heading |
|---|---|---|---|---|---|
| 2026-05-04 19:00 | 49.49514 | 11.07851 | 1029 ft | 0 kts | 189° |
| 2026-05-04 19:17 | 49.49533 | 11.07855 | 1029 ft | 4 kts | 183° |
| 2026-05-04 19:17 | 49.49559 | 11.07854 | 1030 ft | 4 kts | 163° |
| 2026-05-04 19:18 | 49.49579 | 11.07835 | 1030 ft | 4 kts | 109° |
| 2026-05-04 19:18 | 49.49581 | 11.07827 | 1030 ft | 0 kts | 98° |
| 2026-05-04 19:22 | 49.49581 | 11.07829 | 1030 ft | 2 kts | 98° |
| 2026-05-04 19:22 | 49.49571 | 11.07924 | 1031 ft | 6 kts | 99° |
| 2026-05-04 19:22 | 49.49565 | 11.07977 | 1032 ft | 4 kts | 98° |
| 2026-05-04 19:22 | 49.49562 | 11.08015 | 1032 ft | 3 kts | 98° |
| 2026-05-04 19:23 | 49.49557 | 11.08065 | 1032 ft | 9 kts | 98° |
| 2026-05-04 19:23 | 49.49548 | 11.08164 | 1032 ft | 9 kts | 98° |
| 2026-05-04 19:23 | 49.49541 | 11.08240 | 1034 ft | 6 kts | 101° |
| 2026-05-04 19:23 | 49.49536 | 11.08282 | 1034 ft | 2 kts | 98° |
| 2026-05-04 19:24 | 49.49550 | 11.08339 | 1036 ft | 10 kts | 39° |
| 2026-05-04 19:24 | 49.49609 | 11.08377 | 1036 ft | 9 kts | 45° |
| 2026-05-04 19:24 | 49.49613 | 11.08459 | 1037 ft | 7 kts | 98° |
| 2026-05-04 19:24 | 49.49599 | 11.08596 | 1040 ft | 17 kts | 99° |
| 2026-05-04 19:25 | 49.49581 | 11.08795 | 1043 ft | 20 kts | 99° |
| 2026-05-04 19:25 | 49.49558 | 11.09008 | 1046 ft | 21 kts | 98° |
| 2026-05-04 19:25 | 49.49539 | 11.09212 | 1049 ft | 14 kts | 98° |
| 2026-05-04 19:25 | 49.49530 | 11.09303 | 1052 ft | 6 kts | 97° |
| 2026-05-04 19:26 | 49.49541 | 11.09375 | 1054 ft | 8 kts | 62° |
| 2026-05-04 19:26 | 49.49568 | 11.09436 | 1056 ft | 6 kts | 53° |
| 2026-05-04 19:26 | 49.49587 | 11.09475 | 1057 ft | 3 kts | 53° |
| 2026-05-04 19:26 | 49.49623 | 11.09545 | 1060 ft | 12 kts | 46° |
| 2026-05-04 19:27 | 49.49670 | 11.09578 | 1061 ft | 7 kts | 12° |
| 2026-05-04 19:27 | 49.49701 | 11.09521 | 1060 ft | 6 kts | 281° |
| 2026-05-04 19:27 | 49.49701 | 11.09516 | 1060 ft | 0 kts | 280° |
| 2026-05-04 19:28 | 49.49723 | 11.09297 | 1055 ft | 59 kts | 278° |
| 2026-05-04 19:28 | 49.49822 | 11.08292 | 1035 ft | 128 kts | 278° |
| 2026-05-04 19:28 | 49.49983 | 11.06677 | 1191 ft | 164 kts | 280° |
| 2026-05-04 19:28 | 49.50155 | 11.04976 | 1954 ft | 161 kts | 281° |
| 2026-05-04 19:29 | 49.50316 | 11.03252 | 2577 ft | 168 kts | 281° |
| 2026-05-04 19:29 | 49.50498 | 11.01373 | 2909 ft | 192 kts | 280° |
| 2026-05-04 19:29 | 49.50708 | 10.99213 | 3244 ft | 217 kts | 279° |
| 2026-05-04 19:29 | 49.50943 | 10.96790 | 3667 ft | 242 kts | 278° |
| 2026-05-04 19:30 | 49.51208 | 10.94096 | 4156 ft | 267 kts | 278° |
| 2026-05-04 19:30 | 49.51486 | 10.91202 | 4978 ft | 276 kts | 277° |
| 2026-05-04 19:30 | 49.51769 | 10.88257 | 5955 ft | 280 kts | 277° |
| 2026-05-04 19:30 | 49.52054 | 10.85297 | 7000 ft | 280 kts | 276° |
| 2026-05-04 19:31 | 49.52342 | 10.82336 | 8030 ft | 280 kts | 276° |
| 2026-05-04 19:31 | 49.52628 | 10.79378 | 9052 ft | 281 kts | 275° |
| 2026-05-04 19:31 | 49.52915 | 10.76393 | 10023 ft | 283 kts | 275° |
| 2026-05-04 19:31 | 49.53202 | 10.73348 | 10501 ft | 302 kts | 275° |
| 2026-05-04 19:32 | 49.53510 | 10.69974 | 10864 ft | 324 kts | 275° |
| 2026-05-04 19:32 | 49.53828 | 10.66534 | 11512 ft | 333 kts | 275° |
| 2026-05-04 19:32 | 49.54165 | 10.62973 | 12307 ft | 338 kts | 276° |
| 2026-05-04 19:32 | 49.54510 | 10.59366 | 12801 ft | 343 kts | 276° |
| 2026-05-04 19:33 | 49.54919 | 10.55752 | 12937 ft | 345 kts | 282° |
| 2026-05-04 19:33 | 49.55744 | 10.52272 | 12971 ft | 348 kts | 293° |
| 2026-05-04 19:33 | 49.57020 | 10.49088 | 12972 ft | 351 kts | 303° |
| 2026-05-04 19:33 | 49.58451 | 10.46035 | 12968 ft | 351 kts | 303° |
| 2026-05-04 19:34 | 49.59878 | 10.42977 | 12978 ft | 351 kts | 303° |
| 2026-05-04 19:34 | 49.61301 | 10.39918 | 12969 ft | 351 kts | 303° |
| 2026-05-04 19:34 | 49.62721 | 10.36864 | 12967 ft | 350 kts | 303° |
| 2026-05-04 19:34 | 49.64138 | 10.33807 | 12971 ft | 350 kts | 303° |
| 2026-05-04 19:35 | 49.65549 | 10.30756 | 12974 ft | 349 kts | 303° |
| 2026-05-04 19:35 | 49.66941 | 10.27737 | 12970 ft | 349 kts | 302° |
| 2026-05-04 19:35 | 49.68344 | 10.24683 | 12972 ft | 349 kts | 302° |
| 2026-05-04 19:35 | 49.69751 | 10.21619 | 12969 ft | 349 kts | 302° |
| 2026-05-04 19:36 | 49.71151 | 10.18554 | 12965 ft | 349 kts | 301° |
| 2026-05-04 19:36 | 49.72175 | 10.15203 | 12972 ft | 344 kts | 284° |
| 2026-05-04 19:36 | 49.72829 | 10.11647 | 12970 ft | 344 kts | 283° |
| 2026-05-04 19:36 | 49.73477 | 10.08090 | 12970 ft | 344 kts | 283° |
| 2026-05-04 19:37 | 49.74126 | 10.04533 | 12975 ft | 344 kts | 283° |
| 2026-05-04 19:37 | 49.74772 | 10.00973 | 12972 ft | 344 kts | 283° |
| 2026-05-04 19:37 | 49.75408 | 9.97411 | 12988 ft | 344 kts | 283° |
| 2026-05-04 19:37 | 49.76027 | 9.93838 | 12978 ft | 343 kts | 282° |
| 2026-05-04 19:38 | 49.76637 | 9.90321 | 12980 ft | 343 kts | 282° |
| 2026-05-04 19:38 | 49.77263 | 9.86765 | 12975 ft | 343 kts | 283° |
| 2026-05-04 19:38 | 49.77881 | 9.83249 | 12743 ft | 334 kts | 282° |
| 2026-05-04 19:38 | 49.78486 | 9.79810 | 12488 ft | 328 kts | 282° |
| 2026-05-04 19:39 | 49.79076 | 9.76449 | 12225 ft | 319 kts | 282° |
| 2026-05-04 19:39 | 49.79648 | 9.73189 | 11971 ft | 311 kts | 282° |
| 2026-05-04 19:39 | 49.80204 | 9.69992 | 11718 ft | 304 kts | 282° |
| 2026-05-04 19:39 | 49.80749 | 9.66847 | 11466 ft | 301 kts | 282° |
| 2026-05-04 19:40 | 49.81290 | 9.63719 | 11218 ft | 300 kts | 282° |
| 2026-05-04 19:40 | 49.81818 | 9.60647 | 11029 ft | 299 kts | 282° |
| 2026-05-04 19:40 | 49.82351 | 9.57543 | 10977 ft | 298 kts | 282° |
| 2026-05-04 19:40 | 49.82886 | 9.54433 | 10992 ft | 299 kts | 282° |
| 2026-05-04 19:41 | 49.83420 | 9.51320 | 10980 ft | 299 kts | 282° |
| 2026-05-04 19:41 | 49.83952 | 9.48204 | 10961 ft | 300 kts | 282° |
| 2026-05-04 19:41 | 49.84584 | 9.45131 | 10693 ft | 301 kts | 294° |
| 2026-05-04 19:41 | 49.85886 | 9.42592 | 10304 ft | 306 kts | 319° |
| 2026-05-04 19:42 | 49.87788 | 9.41075 | 9824 ft | 313 kts | 340° |
| 2026-05-04 19:42 | 49.89890 | 9.40212 | 9452 ft | 310 kts | 344° |
| 2026-05-04 19:42 | 49.91949 | 9.39432 | 9260 ft | 301 kts | 344° |
| 2026-05-04 19:42 | 49.93942 | 9.38681 | 9080 ft | 297 kts | 344° |
| 2026-05-04 19:43 | 49.95944 | 9.37926 | 8891 ft | 296 kts | 344° |
| 2026-05-04 19:43 | 49.97943 | 9.37172 | 8695 ft | 295 kts | 344° |
| 2026-05-04 19:43 | 49.99931 | 9.36419 | 8331 ft | 293 kts | 344° |
| 2026-05-04 19:43 | 50.01905 | 9.35668 | 7944 ft | 291 kts | 344° |
| 2026-05-04 19:44 | 50.03863 | 9.34917 | 7565 ft | 289 kts | 344° |
| 2026-05-04 19:44 | 50.05809 | 9.34159 | 7180 ft | 287 kts | 344° |
| 2026-05-04 19:44 | 50.07741 | 9.33390 | 6800 ft | 286 kts | 344° |
| 2026-05-04 19:44 | 50.09659 | 9.32616 | 6432 ft | 284 kts | 344° |
| 2026-05-04 19:45 | 50.11563 | 9.31838 | 6037 ft | 282 kts | 344° |
| 2026-05-04 19:45 | 50.13420 | 9.31067 | 5669 ft | 279 kts | 344° |
| 2026-05-04 19:45 | 50.15276 | 9.30254 | 5291 ft | 275 kts | 339° |
| 2026-05-04 19:45 | 50.16846 | 9.28652 | 5040 ft | 269 kts | 310° |
| 2026-05-04 19:46 | 50.17704 | 9.26099 | 5022 ft | 269 kts | 282° |
| 2026-05-04 19:46 | 50.17975 | 9.23214 | 5020 ft | 269 kts | 275° |
| 2026-05-04 19:46 | 50.18145 | 9.20306 | 5021 ft | 269 kts | 274° |
| 2026-05-04 19:46 | 50.18310 | 9.17395 | 5022 ft | 269 kts | 274° |
| 2026-05-04 19:47 | 50.18487 | 9.14494 | 5021 ft | 269 kts | 274° |
| 2026-05-04 19:47 | 50.18666 | 9.11632 | 5016 ft | 257 kts | 274° |
| 2026-05-04 19:47 | 50.18836 | 9.08957 | 5017 ft | 240 kts | 274° |
| 2026-05-04 19:47 | 50.18947 | 9.06385 | 5019 ft | 236 kts | 263° |
| 2026-05-04 19:48 | 50.18478 | 9.03978 | 5023 ft | 232 kts | 233° |
| 2026-05-04 19:48 | 50.17340 | 9.02275 | 5023 ft | 231 kts | 218° |
| 2026-05-04 19:48 | 50.16129 | 9.00621 | 5018 ft | 232 kts | 227° |
| 2026-05-04 19:48 | 50.15263 | 8.98466 | 5019 ft | 233 kts | 245° |
| 2026-05-04 19:49 | 50.14680 | 8.96153 | 5014 ft | 227 kts | 249° |
| 2026-05-04 19:49 | 50.14171 | 8.93930 | 5013 ft | 210 kts | 249° |
| 2026-05-04 19:49 | 50.13693 | 8.91870 | 5011 ft | 196 kts | 248° |
| 2026-05-04 19:49 | 50.13230 | 8.89899 | 5014 ft | 192 kts | 248° |
| 2026-05-04 19:50 | 50.12773 | 8.87948 | 5015 ft | 192 kts | 248° |
| 2026-05-04 19:50 | 50.12316 | 8.85995 | 4970 ft | 191 kts | 248° |
| 2026-05-04 19:50 | 50.11865 | 8.84071 | 4749 ft | 190 kts | 248° |
| 2026-05-04 19:50 | 50.11413 | 8.82154 | 4477 ft | 191 kts | 249° |
| 2026-05-04 19:51 | 50.10961 | 8.80247 | 4270 ft | 185 kts | 249° |
| 2026-05-04 19:51 | 50.10512 | 8.78350 | 3956 ft | 189 kts | 249° |
| 2026-05-04 19:51 | 50.10060 | 8.76423 | 3639 ft | 189 kts | 249° |
| 2026-05-04 19:51 | 50.09610 | 8.74516 | 3348 ft | 187 kts | 250° |
| 2026-05-04 19:52 | 50.09160 | 8.72615 | 3104 ft | 188 kts | 250° |
| 2026-05-04 19:52 | 50.08708 | 8.70704 | 2847 ft | 188 kts | 251° |
| 2026-05-04 19:52 | 50.08258 | 8.68813 | 2622 ft | 186 kts | 251° |
| 2026-05-04 19:52 | 50.07819 | 8.66967 | 2359 ft | 176 kts | 250° |
| 2026-05-04 19:53 | 50.07414 | 8.65275 | 2101 ft | 160 kts | 251° |
| 2026-05-04 19:53 | 50.07045 | 8.63710 | 1846 ft | 149 kts | 251° |
| 2026-05-04 19:53 | 50.06693 | 8.62238 | 1644 ft | 141 kts | 252° |
| 2026-05-04 19:53 | 50.06362 | 8.60847 | 1462 ft | 138 kts | 252° |
| 2026-05-04 19:54 | 50.06028 | 8.59442 | 1277 ft | 139 kts | 251° |
| 2026-05-04 19:54 | 50.05694 | 8.58031 | 1068 ft | 138 kts | 252° |
| 2026-05-04 19:54 | 50.05360 | 8.56631 | 858 ft | 138 kts | 252° |
| 2026-05-04 19:54 | 50.05030 | 8.55243 | 657 ft | 135 kts | 251° |
| 2026-05-04 19:55 | 50.04705 | 8.53892 | 474 ft | 132 kts | 251° |
| 2026-05-04 19:55 | 50.04392 | 8.52590 | 352 ft | 120 kts | 250° |
| 2026-05-04 19:55 | 50.04156 | 8.51593 | 332 ft | 74 kts | 250° |
| 2026-05-04 19:55 | 50.04027 | 8.51061 | 325 ft | 42 kts | 250° |
| 2026-05-04 19:56 | 50.03928 | 8.50648 | 321 ft | 38 kts | 247° |
| 2026-05-04 19:56 | 50.03815 | 8.50353 | 320 ft | 27 kts | 225° |
| 2026-05-04 19:56 | 50.03704 | 8.50205 | 319 ft | 17 kts | 217° |
| 2026-05-04 19:56 | 50.03625 | 8.50246 | 325 ft | 14 kts | 95° |
| 2026-05-04 19:57 | 50.03649 | 8.50393 | 326 ft | 15 kts | 74° |
| 2026-05-04 19:57 | 50.03691 | 8.50557 | 328 ft | 18 kts | 64° |
| 2026-05-04 19:57 | 50.03738 | 8.50745 | 328 ft | 19 kts | 70° |
| 2026-05-04 19:57 | 50.03787 | 8.50947 | 330 ft | 21 kts | 69° |
| 2026-05-04 19:58 | 50.03838 | 8.51162 | 333 ft | 22 kts | 69° |
| 2026-05-04 19:58 | 50.03892 | 8.51388 | 336 ft | 23 kts | 69° |
| 2026-05-04 19:58 | 50.03949 | 8.51627 | 339 ft | 24 kts | 69° |
| 2026-05-04 19:58 | 50.04009 | 8.51877 | 342 ft | 25 kts | 69° |
| 2026-05-04 19:59 | 50.04072 | 8.52139 | 352 ft | 26 kts | 69° |
| 2026-05-04 19:59 | 50.04137 | 8.52414 | 348 ft | 28 kts | 69° |
| 2026-05-04 19:59 | 50.04205 | 8.52698 | 353 ft | 29 kts | 70° |
| 2026-05-04 19:59 | 50.04276 | 8.52993 | 357 ft | 29 kts | 69° |
| 2026-05-04 20:00 | 50.04344 | 8.53276 | 366 ft | 27 kts | 69° |
| 2026-05-04 20:00 | 50.04398 | 8.53546 | 364 ft | 26 kts | 84° |
| 2026-05-04 20:00 | 50.04415 | 8.53832 | 364 ft | 27 kts | 82° |
| 2026-05-04 20:00 | 50.04435 | 8.54122 | 364 ft | 27 kts | 84° |
| 2026-05-04 20:01 | 50.04453 | 8.54403 | 365 ft | 24 kts | 86° |
| 2026-05-04 20:01 | 50.04414 | 8.54634 | 365 ft | 23 kts | 122° |
| 2026-05-04 20:01 | 50.04301 | 8.54779 | 365 ft | 15 kts | 156° |
| 2026-05-04 20:01 | 50.04204 | 8.54832 | 366 ft | 15 kts | 161° |
| 2026-05-04 20:02 | 50.04116 | 8.54883 | 366 ft | 10 kts | 160° |
| 2026-05-04 20:02 | 50.04086 | 8.54900 | 366 ft | 3 kts | 159° |
| 2026-05-04 20:02 | 50.04081 | 8.54903 | 365 ft | 0 kts | 159° |
| 2026-05-04 20:03 | 50.04069 | 8.54909 | 368 ft | 6 kts | 160° |
| 2026-05-04 20:04 | 50.04005 | 8.54948 | 367 ft | 14 kts | 159° |
| 2026-05-04 20:04 | 50.03907 | 8.55005 | 364 ft | 15 kts | 160° |
| 2026-05-04 20:04 | 50.03849 | 8.55115 | 363 ft | 14 kts | 77° |
| 2026-05-04 20:04 | 50.03882 | 8.55255 | 368 ft | 14 kts | 70° |
| 2026-05-04 20:05 | 50.03914 | 8.55391 | 365 ft | 13 kts | 70° |
| 2026-05-04 20:05 | 50.03945 | 8.55519 | 366 ft | 12 kts | 69° |
| 2026-05-04 20:05 | 50.03978 | 8.55659 | 365 ft | 17 kts | 69° |
| 2026-05-04 20:05 | 50.04024 | 8.55848 | 368 ft | 14 kts | 69° |
| 2026-05-04 20:06 | 50.04029 | 8.55869 | 370 ft | 0 kts | 69° |
| 2026-05-04 20:06 | 50.04041 | 8.55918 | 367 ft | 10 kts | 70° |
| 2026-05-04 20:06 | 50.04073 | 8.56053 | 367 ft | 16 kts | 70° |
| 2026-05-04 20:06 | 50.04114 | 8.56228 | 366 ft | 18 kts | 70° |
| 2026-05-04 20:07 | 50.04160 | 8.56415 | 366 ft | 17 kts | 69° |
| 2026-05-04 20:07 | 50.04182 | 8.56508 | 365 ft | 2 kts | 70° |
| 2026-05-04 20:07 | 50.04186 | 8.56528 | 367 ft | 1 kts | 70° |
| 2026-05-04 20:08 | 50.04187 | 8.56528 | 367 ft | 1 kts | 70° |
| 2026-05-04 20:08 | 50.04201 | 8.56590 | 368 ft | 10 kts | 70° |
| 2026-05-04 20:08 | 50.04230 | 8.56712 | 367 ft | 13 kts | 69° |
| 2026-05-04 20:09 | 50.04289 | 8.56809 | 368 ft | 13 kts | 16° |
| 2026-05-04 20:09 | 50.04382 | 8.56837 | 365 ft | 14 kts | 9° |
| 2026-05-04 20:09 | 50.04481 | 8.56865 | 365 ft | 12 kts | 12° |
| 2026-05-04 20:09 | 50.04490 | 8.56869 | 365 ft | 0 kts | 13° |
| 2026-05-04 20:10 | 50.04500 | 8.56870 | 365 ft | 1 kts | 8° |
| 2026-05-04 20:10 | 50.04505 | 8.56869 | 365 ft | 3 kts | 358° |
| 2026-05-04 20:10 | 50.04525 | 8.56847 | 366 ft | 4 kts | 305° |
| 2026-05-04 20:11 | 50.04528 | 8.56805 | 372 ft | 4 kts | 276° |
| 2026-05-04 20:11 | 50.04537 | 8.56767 | 367 ft | 2 kts | 292° |
| 2026-05-04 20:11 | 50.04543 | 8.56745 | 372 ft | 2 kts | 294° |
| 2026-05-04 20:11 | 50.04547 | 8.56730 | 370 ft | 1 kts | 294° |
| 2026-05-04 20:12 | 50.04548 | 8.56726 | 370 ft | 0 kts | 294° |